SWA561 EGLL-EDDH
Flight info
| Callsign | SWA561 |
|---|---|
| Flight time | 1h 13m |
| Altitude | 35000 |
| Route | BPK6J BPK Q295 SOMVA DCT MAVAS DCT GASTU DCT OSTOR T904 RIBSO RIBSO7A |
| Aircraft | B738/M-SDE2E3FGHIRWXY/LB1 |
Departure
| Time | 2026-05-06 16:34 |
|---|---|
| Airport | London Heathrow Airport (EGLL) |
Arrival
| Time | 2026-05-06 17:47 |
|---|---|
| Airport | Hamburg Helmut Schmidt Airport (EDDH) |
| Time | Latitude | Longitude | Altitude | Speed | Heading |
|---|---|---|---|---|---|
| 2026-05-06 16:15 | 51.46825 | -0.45184 | 87 ft | 0 kts | 360° |
| 2026-05-06 16:22 | 51.46810 | -0.45184 | 90 ft | 2 kts | 360° |
| 2026-05-06 16:22 | 51.46792 | -0.45183 | 88 ft | 3 kts | 360° |
| 2026-05-06 16:22 | 51.46774 | -0.45183 | 89 ft | 2 kts | 360° |
| 2026-05-06 16:23 | 51.46757 | -0.45183 | 87 ft | 2 kts | 360° |
| 2026-05-06 16:23 | 51.46749 | -0.45183 | 88 ft | 0 kts | 360° |
| 2026-05-06 16:23 | 51.46750 | -0.45184 | 88 ft | 1 kts | 355° |
| 2026-05-06 16:23 | 51.46751 | -0.45195 | 89 ft | 0 kts | 266° |
| 2026-05-06 16:25 | 51.46748 | -0.45255 | 89 ft | 9 kts | 268° |
| 2026-05-06 16:25 | 51.46748 | -0.45403 | 86 ft | 23 kts | 271° |
| 2026-05-06 16:26 | 51.46744 | -0.45738 | 86 ft | 29 kts | 268° |
| 2026-05-06 16:26 | 51.46747 | -0.46016 | 90 ft | 24 kts | 269° |
| 2026-05-06 16:26 | 51.46745 | -0.46188 | 86 ft | 23 kts | 269° |
| 2026-05-06 16:26 | 51.46745 | -0.46438 | 86 ft | 22 kts | 273° |
| 2026-05-06 16:27 | 51.46747 | -0.46681 | 90 ft | 22 kts | 270° |
| 2026-05-06 16:27 | 51.46746 | -0.46919 | 89 ft | 21 kts | 269° |
| 2026-05-06 16:27 | 51.46746 | -0.47148 | 86 ft | 20 kts | 270° |
| 2026-05-06 16:27 | 51.46745 | -0.47369 | 86 ft | 20 kts | 264° |
| 2026-05-06 16:28 | 51.46744 | -0.47585 | 86 ft | 19 kts | 270° |
| 2026-05-06 16:28 | 51.46743 | -0.47796 | 86 ft | 18 kts | 270° |
| 2026-05-06 16:28 | 51.46743 | -0.47995 | 86 ft | 18 kts | 270° |
| 2026-05-06 16:28 | 51.46742 | -0.48190 | 86 ft | 17 kts | 269° |
| 2026-05-06 16:29 | 51.46741 | -0.48378 | 86 ft | 17 kts | 269° |
| 2026-05-06 16:29 | 51.46740 | -0.48559 | 86 ft | 16 kts | 269° |
| 2026-05-06 16:29 | 51.46723 | -0.48725 | 89 ft | 15 kts | 227° |
| 2026-05-06 16:29 | 51.46646 | -0.48750 | 86 ft | 11 kts | 189° |
| 2026-05-06 16:30 | 51.46629 | -0.48756 | 87 ft | 0 kts | 191° |
| 2026-05-06 16:31 | 51.46619 | -0.48759 | 88 ft | 11 kts | 192° |
| 2026-05-06 16:31 | 51.46521 | -0.48777 | 88 ft | 15 kts | 164° |
| 2026-05-06 16:31 | 51.46480 | -0.48666 | 87 ft | 9 kts | 97° |
| 2026-05-06 16:31 | 51.46479 | -0.48614 | 87 ft | 0 kts | 90° |
| 2026-05-06 16:33 | 51.46479 | -0.48457 | 87 ft | 46 kts | 90° |
| 2026-05-06 16:33 | 51.46482 | -0.47553 | 84 ft | 114 kts | 89° |
| 2026-05-06 16:33 | 51.46478 | -0.45981 | 110 ft | 165 kts | 88° |
| 2026-05-06 16:34 | 51.46416 | -0.41958 | 1284 ft | 197 kts | 85° |
| 2026-05-06 16:34 | 51.46624 | -0.39780 | 1956 ft | 199 kts | 70° |
| 2026-05-06 16:34 | 51.47212 | -0.37738 | 2573 ft | 203 kts | 54° |
| 2026-05-06 16:34 | 51.48112 | -0.35990 | 3162 ft | 207 kts | 42° |
| 2026-05-06 16:35 | 51.49216 | -0.34467 | 3756 ft | 213 kts | 39° |
| 2026-05-06 16:35 | 51.50195 | -0.32541 | 3969 ft | 241 kts | 61° |
| 2026-05-06 16:35 | 51.50989 | -0.30071 | 4493 ft | 254 kts | 59° |
| 2026-05-06 16:35 | 51.51872 | -0.27571 | 5168 ft | 262 kts | 58° |
| 2026-05-06 16:36 | 51.52789 | -0.25046 | 5821 ft | 262 kts | 58° |
| 2026-05-06 16:36 | 51.53722 | -0.22495 | 5978 ft | 264 kts | 58° |
| 2026-05-06 16:36 | 51.54758 | -0.20061 | 5984 ft | 264 kts | 41° |
| 2026-05-06 16:36 | 51.56327 | -0.18596 | 6021 ft | 264 kts | 16° |
| 2026-05-06 16:37 | 51.58144 | -0.18338 | 6066 ft | 263 kts | 0° |
| 2026-05-06 16:37 | 51.59943 | -0.17868 | 6067 ft | 263 kts | 16° |
| 2026-05-06 16:37 | 51.61684 | -0.16986 | 6049 ft | 262 kts | 17° |
| 2026-05-06 16:37 | 51.63424 | -0.16100 | 6051 ft | 260 kts | 17° |
| 2026-05-06 16:38 | 51.65154 | -0.15256 | 6066 ft | 261 kts | 17° |
| 2026-05-06 16:38 | 51.66877 | -0.14433 | 6068 ft | 262 kts | 16° |
| 2026-05-06 16:38 | 51.68645 | -0.13613 | 6052 ft | 264 kts | 15° |
| 2026-05-06 16:38 | 51.70406 | -0.12805 | 6058 ft | 264 kts | 15° |
| 2026-05-06 16:39 | 51.72178 | -0.11994 | 6055 ft | 264 kts | 15° |
| 2026-05-06 16:39 | 51.73829 | -0.10766 | 6039 ft | 263 kts | 39° |
| 2026-05-06 16:39 | 51.74966 | -0.08476 | 6133 ft | 266 kts | 63° |
| 2026-05-06 16:39 | 51.75478 | -0.05570 | 6690 ft | 271 kts | 80° |
| 2026-05-06 16:40 | 51.75729 | -0.02538 | 7456 ft | 274 kts | 81° |
| 2026-05-06 16:40 | 51.75965 | 0.00511 | 8150 ft | 279 kts | 81° |
| 2026-05-06 16:40 | 51.76208 | 0.03647 | 8799 ft | 284 kts | 81° |
| 2026-05-06 16:40 | 51.76460 | 0.06841 | 9523 ft | 289 kts | 81° |
| 2026-05-06 16:41 | 51.76722 | 0.10101 | 10187 ft | 294 kts | 81° |
| 2026-05-06 16:41 | 51.76994 | 0.13442 | 10683 ft | 305 kts | 81° |
| 2026-05-06 16:41 | 51.77271 | 0.16858 | 11263 ft | 312 kts | 81° |
| 2026-05-06 16:41 | 51.77553 | 0.20351 | 11981 ft | 315 kts | 82° |
| 2026-05-06 16:42 | 51.77824 | 0.23892 | 12676 ft | 319 kts | 82° |
| 2026-05-06 16:42 | 51.78099 | 0.27477 | 13424 ft | 322 kts | 82° |
| 2026-05-06 16:42 | 51.78389 | 0.31097 | 14110 ft | 327 kts | 82° |
| 2026-05-06 16:42 | 51.78684 | 0.34744 | 14794 ft | 330 kts | 82° |
| 2026-05-06 16:43 | 51.78979 | 0.38390 | 15496 ft | 332 kts | 82° |
| 2026-05-06 16:43 | 51.79278 | 0.42112 | 16202 ft | 336 kts | 82° |
| 2026-05-06 16:43 | 51.79579 | 0.45879 | 16906 ft | 339 kts | 82° |
| 2026-05-06 16:43 | 51.79881 | 0.49683 | 17592 ft | 342 kts | 82° |
| 2026-05-06 16:44 | 51.80186 | 0.53529 | 18288 ft | 346 kts | 82° |
| 2026-05-06 16:44 | 51.80493 | 0.57416 | 18828 ft | 351 kts | 82° |
| 2026-05-06 16:44 | 51.80800 | 0.61337 | 19457 ft | 353 kts | 82° |
| 2026-05-06 16:44 | 51.81207 | 0.65279 | 20027 ft | 357 kts | 75° |
| 2026-05-06 16:45 | 51.82029 | 0.69077 | 20586 ft | 360 kts | 66° |
| 2026-05-06 16:45 | 51.83037 | 0.72807 | 21178 ft | 363 kts | 65° |
| 2026-05-06 16:45 | 51.84062 | 0.76550 | 21737 ft | 367 kts | 66° |
| 2026-05-06 16:45 | 51.85083 | 0.80363 | 22305 ft | 370 kts | 66° |
| 2026-05-06 16:46 | 51.86097 | 0.84220 | 22844 ft | 375 kts | 67° |
| 2026-05-06 16:46 | 51.87110 | 0.88114 | 23415 ft | 377 kts | 67° |
| 2026-05-06 16:46 | 51.88123 | 0.92052 | 23925 ft | 380 kts | 68° |
| 2026-05-06 16:46 | 51.89122 | 0.95956 | 24388 ft | 382 kts | 68° |
| 2026-05-06 16:47 | 51.90142 | 0.99947 | 24873 ft | 384 kts | 68° |
| 2026-05-06 16:47 | 51.91166 | 1.03962 | 25317 ft | 387 kts | 68° |
| 2026-05-06 16:47 | 51.92200 | 1.08021 | 25774 ft | 390 kts | 68° |
| 2026-05-06 16:47 | 51.93236 | 1.12091 | 26229 ft | 392 kts | 68° |
| 2026-05-06 16:48 | 51.94279 | 1.16193 | 26708 ft | 394 kts | 69° |
| 2026-05-06 16:48 | 51.95323 | 1.20308 | 27139 ft | 396 kts | 69° |
| 2026-05-06 16:48 | 51.96376 | 1.24464 | 27556 ft | 399 kts | 69° |
| 2026-05-06 16:48 | 51.97432 | 1.28641 | 27976 ft | 402 kts | 69° |
| 2026-05-06 16:49 | 51.98492 | 1.32839 | 28387 ft | 405 kts | 69° |
| 2026-05-06 16:49 | 51.99567 | 1.37107 | 28771 ft | 407 kts | 69° |
| 2026-05-06 16:49 | 52.00626 | 1.41319 | 29155 ft | 410 kts | 69° |
| 2026-05-06 16:49 | 52.01707 | 1.45625 | 29537 ft | 413 kts | 69° |
| 2026-05-06 16:50 | 52.02793 | 1.49962 | 29900 ft | 416 kts | 69° |
| 2026-05-06 16:50 | 52.03888 | 1.54340 | 30182 ft | 419 kts | 69° |
| 2026-05-06 16:50 | 52.04986 | 1.58740 | 30493 ft | 421 kts | 69° |
| 2026-05-06 16:50 | 52.06086 | 1.63160 | 30834 ft | 423 kts | 69° |
| 2026-05-06 16:51 | 52.07181 | 1.67564 | 31152 ft | 424 kts | 69° |
| 2026-05-06 16:51 | 52.08288 | 1.72027 | 31445 ft | 426 kts | 70° |
| 2026-05-06 16:51 | 52.09399 | 1.76517 | 31730 ft | 428 kts | 70° |
| 2026-05-06 16:51 | 52.10513 | 1.81025 | 32015 ft | 430 kts | 70° |
| 2026-05-06 16:52 | 52.11627 | 1.85546 | 32274 ft | 433 kts | 70° |
| 2026-05-06 16:52 | 52.12748 | 1.90100 | 32547 ft | 434 kts | 70° |
| 2026-05-06 16:52 | 52.13871 | 1.94677 | 32841 ft | 435 kts | 70° |
| 2026-05-06 16:52 | 52.14995 | 1.99264 | 33097 ft | 437 kts | 70° |
| 2026-05-06 16:53 | 52.16121 | 2.03868 | 33335 ft | 440 kts | 70° |
| 2026-05-06 16:53 | 52.17256 | 2.08521 | 33581 ft | 441 kts | 70° |
| 2026-05-06 16:53 | 52.18387 | 2.13169 | 33840 ft | 443 kts | 70° |
| 2026-05-06 16:53 | 52.19529 | 2.17870 | 34021 ft | 446 kts | 70° |
| 2026-05-06 16:54 | 52.20673 | 2.22590 | 34109 ft | 450 kts | 70° |
| 2026-05-06 16:54 | 52.21815 | 2.27313 | 34218 ft | 453 kts | 70° |
| 2026-05-06 16:54 | 52.22970 | 2.32098 | 34406 ft | 455 kts | 70° |
| 2026-05-06 16:54 | 52.24128 | 2.36903 | 34653 ft | 454 kts | 70° |
| 2026-05-06 16:55 | 52.25282 | 2.41706 | 34914 ft | 454 kts | 70° |
| 2026-05-06 16:55 | 52.27597 | 2.51373 | 34950 ft | 459 kts | 70° |
| 2026-05-06 16:56 | 52.29901 | 2.61030 | 34945 ft | 455 kts | 71° |
| 2026-05-06 16:56 | 52.31953 | 2.70812 | 34952 ft | 451 kts | 76° |
| 2026-05-06 16:57 | 52.33649 | 2.80701 | 34954 ft | 451 kts | 77° |
| 2026-05-06 16:57 | 52.35330 | 2.90514 | 34956 ft | 452 kts | 76° |
| 2026-05-06 16:58 | 52.37060 | 3.00407 | 34949 ft | 453 kts | 76° |
| 2026-05-06 16:58 | 52.38795 | 3.10328 | 34947 ft | 454 kts | 76° |
| 2026-05-06 16:59 | 52.40767 | 3.20150 | 34943 ft | 457 kts | 68° |
| 2026-05-06 16:59 | 52.43444 | 3.29637 | 34940 ft | 459 kts | 67° |
| 2026-05-06 17:00 | 52.46182 | 3.39128 | 34942 ft | 460 kts | 67° |
| 2026-05-06 17:00 | 52.48887 | 3.48665 | 34939 ft | 462 kts | 68° |
| 2026-05-06 17:01 | 52.51557 | 3.58210 | 34941 ft | 463 kts | 68° |
| 2026-05-06 17:01 | 52.54227 | 3.67835 | 34937 ft | 464 kts | 68° |
| 2026-05-06 17:02 | 52.56894 | 3.77489 | 34942 ft | 464 kts | 68° |
| 2026-05-06 17:02 | 52.59565 | 3.87193 | 34931 ft | 465 kts | 68° |
| 2026-05-06 17:03 | 52.62230 | 3.96913 | 34938 ft | 466 kts | 68° |
| 2026-05-06 17:03 | 52.64890 | 4.06655 | 34935 ft | 467 kts | 68° |
| 2026-05-06 17:04 | 52.67545 | 4.16422 | 34936 ft | 467 kts | 68° |
| 2026-05-06 17:04 | 52.70193 | 4.26213 | 34935 ft | 467 kts | 69° |
| 2026-05-06 17:05 | 52.72822 | 4.35962 | 34936 ft | 467 kts | 69° |
| 2026-05-06 17:05 | 52.75459 | 4.45783 | 34941 ft | 468 kts | 69° |
| 2026-05-06 17:06 | 52.78095 | 4.55644 | 34937 ft | 468 kts | 69° |
| 2026-05-06 17:06 | 52.80716 | 4.65494 | 34940 ft | 469 kts | 69° |
| 2026-05-06 17:07 | 52.83324 | 4.75334 | 34940 ft | 469 kts | 69° |
| 2026-05-06 17:07 | 52.85934 | 4.85230 | 34942 ft | 470 kts | 69° |
| 2026-05-06 17:08 | 52.88543 | 4.95160 | 34939 ft | 470 kts | 69° |
| 2026-05-06 17:08 | 52.91143 | 5.05103 | 34935 ft | 470 kts | 69° |
| 2026-05-06 17:09 | 52.93734 | 5.15054 | 34935 ft | 470 kts | 69° |
| 2026-05-06 17:09 | 52.96320 | 5.25032 | 34936 ft | 470 kts | 69° |
| 2026-05-06 17:10 | 52.98883 | 5.34962 | 34931 ft | 471 kts | 69° |
| 2026-05-06 17:10 | 53.01365 | 5.45002 | 34935 ft | 470 kts | 71° |
| 2026-05-06 17:11 | 53.03264 | 5.53531 | 34938 ft | 470 kts | 72° |
| 2026-05-06 17:11 | 53.05863 | 5.65404 | 34935 ft | 470 kts | 72° |
| 2026-05-06 17:12 | 53.07738 | 5.73887 | 34941 ft | 470 kts | 72° |
| 2026-05-06 17:12 | 53.10004 | 5.84094 | 34941 ft | 470 kts | 72° |
| 2026-05-06 17:13 | 53.12271 | 5.94320 | 34937 ft | 471 kts | 72° |
| 2026-05-06 17:13 | 53.14527 | 6.04553 | 34931 ft | 470 kts | 72° |
| 2026-05-06 17:13 | 53.15644 | 6.09635 | 34563 ft | 465 kts | 72° |
| 2026-05-06 17:14 | 53.16748 | 6.14667 | 34202 ft | 457 kts | 72° |
| 2026-05-06 17:14 | 53.17813 | 6.19533 | 33797 ft | 447 kts | 72° |
| 2026-05-06 17:14 | 53.18871 | 6.24384 | 33384 ft | 445 kts | 72° |
| 2026-05-06 17:14 | 53.19928 | 6.29255 | 32992 ft | 448 kts | 72° |
| 2026-05-06 17:15 | 53.20995 | 6.34184 | 32600 ft | 453 kts | 72° |
| 2026-05-06 17:15 | 53.22066 | 6.39141 | 32219 ft | 455 kts | 72° |
| 2026-05-06 17:15 | 53.23138 | 6.44108 | 31821 ft | 454 kts | 72° |
| 2026-05-06 17:15 | 53.24206 | 6.49069 | 31436 ft | 454 kts | 72° |
| 2026-05-06 17:16 | 53.25271 | 6.54024 | 31060 ft | 454 kts | 72° |
| 2026-05-06 17:16 | 53.26336 | 6.58989 | 30691 ft | 453 kts | 72° |
| 2026-05-06 17:16 | 53.27394 | 6.63937 | 30320 ft | 453 kts | 72° |
| 2026-05-06 17:16 | 53.28453 | 6.68902 | 29944 ft | 452 kts | 72° |
| 2026-05-06 17:17 | 53.29507 | 6.73854 | 29519 ft | 452 kts | 72° |
| 2026-05-06 17:17 | 53.30557 | 6.78801 | 29107 ft | 451 kts | 72° |
| 2026-05-06 17:17 | 53.31605 | 6.83756 | 28692 ft | 452 kts | 72° |
| 2026-05-06 17:17 | 53.32651 | 6.88706 | 28285 ft | 452 kts | 72° |
| 2026-05-06 17:18 | 53.33684 | 6.93609 | 27882 ft | 453 kts | 72° |
| 2026-05-06 17:18 | 53.34732 | 6.98600 | 27491 ft | 454 kts | 72° |
| 2026-05-06 17:18 | 53.35770 | 7.03548 | 27076 ft | 443 kts | 72° |
| 2026-05-06 17:18 | 53.36774 | 7.08339 | 26671 ft | 429 kts | 72° |
| 2026-05-06 17:19 | 53.37747 | 7.12999 | 26267 ft | 419 kts | 72° |
| 2026-05-06 17:19 | 53.38706 | 7.17605 | 25907 ft | 419 kts | 72° |
| 2026-05-06 17:19 | 53.39666 | 7.22233 | 25550 ft | 424 kts | 72° |
| 2026-05-06 17:19 | 53.40641 | 7.26946 | 25198 ft | 429 kts | 72° |
| 2026-05-06 17:20 | 53.41612 | 7.31642 | 24928 ft | 421 kts | 72° |
| 2026-05-06 17:20 | 53.42551 | 7.36195 | 24913 ft | 407 kts | 72° |
| 2026-05-06 17:20 | 53.43463 | 7.40623 | 24913 ft | 398 kts | 72° |
| 2026-05-06 17:20 | 53.44356 | 7.44970 | 24694 ft | 393 kts | 72° |
| 2026-05-06 17:21 | 53.45238 | 7.49272 | 24308 ft | 386 kts | 72° |
| 2026-05-06 17:21 | 53.46099 | 7.53483 | 23950 ft | 377 kts | 72° |
| 2026-05-06 17:21 | 53.46940 | 7.57609 | 23594 ft | 370 kts | 72° |
| 2026-05-06 17:21 | 53.47756 | 7.61618 | 23199 ft | 365 kts | 72° |
| 2026-05-06 17:22 | 53.48570 | 7.65626 | 22787 ft | 359 kts | 72° |
| 2026-05-06 17:22 | 53.49373 | 7.69589 | 22387 ft | 357 kts | 72° |
| 2026-05-06 17:22 | 53.50177 | 7.73563 | 22001 ft | 359 kts | 72° |
| 2026-05-06 17:22 | 53.50981 | 7.77545 | 21621 ft | 361 kts | 71° |
| 2026-05-06 17:23 | 53.51785 | 7.81537 | 21224 ft | 358 kts | 71° |
| 2026-05-06 17:23 | 53.52580 | 7.85487 | 20841 ft | 354 kts | 71° |
| 2026-05-06 17:23 | 53.53352 | 7.89333 | 20465 ft | 351 kts | 71° |
| 2026-05-06 17:23 | 53.54131 | 7.93223 | 20026 ft | 350 kts | 71° |
| 2026-05-06 17:24 | 53.54908 | 7.97107 | 19573 ft | 350 kts | 71° |
| 2026-05-06 17:24 | 53.55689 | 8.01024 | 19122 ft | 358 kts | 71° |
| 2026-05-06 17:24 | 53.56487 | 8.05032 | 18672 ft | 363 kts | 71° |
| 2026-05-06 17:24 | 53.57286 | 8.09055 | 18218 ft | 362 kts | 71° |
| 2026-05-06 17:25 | 53.58080 | 8.13057 | 17708 ft | 359 kts | 71° |
| 2026-05-06 17:25 | 53.58866 | 8.17030 | 17200 ft | 355 kts | 71° |
| 2026-05-06 17:25 | 53.59642 | 8.20956 | 16694 ft | 352 kts | 71° |
| 2026-05-06 17:25 | 53.60410 | 8.24853 | 16203 ft | 349 kts | 71° |
| 2026-05-06 17:26 | 53.61172 | 8.28729 | 15717 ft | 347 kts | 71° |
| 2026-05-06 17:26 | 53.61927 | 8.32573 | 15246 ft | 344 kts | 71° |
| 2026-05-06 17:26 | 53.62673 | 8.36381 | 14826 ft | 340 kts | 71° |
| 2026-05-06 17:26 | 53.63406 | 8.40130 | 14460 ft | 334 kts | 71° |
| 2026-05-06 17:27 | 53.64126 | 8.43821 | 14086 ft | 330 kts | 71° |
| 2026-05-06 17:27 | 53.64831 | 8.47438 | 13745 ft | 327 kts | 71° |
| 2026-05-06 17:27 | 53.65537 | 8.51070 | 13357 ft | 324 kts | 71° |
| 2026-05-06 17:27 | 53.66237 | 8.54678 | 12965 ft | 322 kts | 71° |
| 2026-05-06 17:28 | 53.66933 | 8.58269 | 12566 ft | 321 kts | 71° |
| 2026-05-06 17:28 | 53.67624 | 8.61841 | 12175 ft | 320 kts | 71° |
| 2026-05-06 17:28 | 53.68313 | 8.65413 | 11848 ft | 319 kts | 71° |
| 2026-05-06 17:28 | 53.68989 | 8.68922 | 11608 ft | 317 kts | 71° |
| 2026-05-06 17:29 | 53.69668 | 8.72452 | 11360 ft | 318 kts | 71° |
| 2026-05-06 17:29 | 53.70358 | 8.76046 | 11124 ft | 323 kts | 71° |
| 2026-05-06 17:29 | 53.71047 | 8.79644 | 10944 ft | 321 kts | 71° |
| 2026-05-06 17:29 | 53.71732 | 8.83227 | 10893 ft | 320 kts | 71° |
| 2026-05-06 17:30 | 53.72409 | 8.86777 | 10883 ft | 316 kts | 72° |
| 2026-05-06 17:30 | 53.73079 | 8.90292 | 10870 ft | 312 kts | 72° |
| 2026-05-06 17:30 | 53.73740 | 8.93773 | 10873 ft | 310 kts | 72° |
| 2026-05-06 17:30 | 53.74400 | 8.97251 | 10877 ft | 312 kts | 72° |
| 2026-05-06 17:31 | 53.75064 | 9.00754 | 10887 ft | 313 kts | 72° |
| 2026-05-06 17:31 | 53.75728 | 9.04266 | 10893 ft | 313 kts | 72° |
| 2026-05-06 17:31 | 53.76391 | 9.07779 | 10887 ft | 314 kts | 72° |
| 2026-05-06 17:31 | 53.77055 | 9.11303 | 10887 ft | 315 kts | 72° |
| 2026-05-06 17:32 | 53.77712 | 9.14797 | 10883 ft | 316 kts | 72° |
| 2026-05-06 17:32 | 53.78378 | 9.18348 | 10884 ft | 316 kts | 72° |
| 2026-05-06 17:32 | 53.79041 | 9.21888 | 10888 ft | 316 kts | 72° |
| 2026-05-06 17:32 | 53.79664 | 9.25441 | 10736 ft | 315 kts | 73° |
| 2026-05-06 17:33 | 53.80274 | 9.29028 | 10351 ft | 318 kts | 73° |
| 2026-05-06 17:33 | 53.80879 | 9.32619 | 9995 ft | 317 kts | 73° |
| 2026-05-06 17:33 | 53.81481 | 9.36214 | 9610 ft | 316 kts | 73° |
| 2026-05-06 17:33 | 53.82077 | 9.39789 | 9219 ft | 315 kts | 74° |
| 2026-05-06 17:34 | 53.82663 | 9.43322 | 8849 ft | 314 kts | 73° |
| 2026-05-06 17:34 | 53.83246 | 9.46860 | 8518 ft | 311 kts | 74° |
| 2026-05-06 17:34 | 53.83828 | 9.50401 | 8165 ft | 304 kts | 74° |
| 2026-05-06 17:34 | 53.84382 | 9.53788 | 7822 ft | 294 kts | 74° |
| 2026-05-06 17:35 | 53.84584 | 9.57161 | 7456 ft | 286 kts | 98° |
| 2026-05-06 17:35 | 53.83921 | 9.60221 | 7132 ft | 278 kts | 124° |
| 2026-05-06 17:35 | 53.82509 | 9.62396 | 6918 ft | 268 kts | 154° |
| 2026-05-06 17:36 | 53.79005 | 9.62406 | 6918 ft | 266 kts | 201° |
| 2026-05-06 17:36 | 53.77265 | 9.61209 | 6895 ft | 271 kts | 203° |
| 2026-05-06 17:36 | 53.75530 | 9.59959 | 6890 ft | 270 kts | 204° |
| 2026-05-06 17:36 | 53.73806 | 9.58706 | 6877 ft | 269 kts | 204° |
| 2026-05-06 17:37 | 53.72090 | 9.57454 | 6874 ft | 268 kts | 204° |
| 2026-05-06 17:37 | 53.70384 | 9.56209 | 6883 ft | 266 kts | 204° |
| 2026-05-06 17:37 | 53.68687 | 9.54970 | 6886 ft | 266 kts | 204° |
| 2026-05-06 17:37 | 53.66945 | 9.53695 | 6490 ft | 279 kts | 204° |
| 2026-05-06 17:38 | 53.65180 | 9.52401 | 6106 ft | 274 kts | 204° |
| 2026-05-06 17:38 | 53.63451 | 9.51122 | 5712 ft | 270 kts | 203° |
| 2026-05-06 17:38 | 53.61747 | 9.49833 | 5319 ft | 266 kts | 204° |
| 2026-05-06 17:38 | 53.60076 | 9.48547 | 5017 ft | 259 kts | 204° |
| 2026-05-06 17:39 | 53.58495 | 9.47314 | 4986 ft | 244 kts | 204° |
| 2026-05-06 17:39 | 53.56901 | 9.46639 | 4987 ft | 233 kts | 174° |
| 2026-05-06 17:39 | 53.55358 | 9.47426 | 5018 ft | 234 kts | 148° |
| 2026-05-06 17:39 | 53.53976 | 9.48866 | 5003 ft | 238 kts | 144° |
| 2026-05-06 17:40 | 53.52599 | 9.50387 | 4991 ft | 236 kts | 144° |
| 2026-05-06 17:40 | 53.51215 | 9.51927 | 4724 ft | 242 kts | 144° |
| 2026-05-06 17:40 | 53.49810 | 9.53492 | 4361 ft | 241 kts | 144° |
| 2026-05-06 17:40 | 53.48419 | 9.55039 | 3989 ft | 239 kts | 144° |
| 2026-05-06 17:41 | 53.47132 | 9.56738 | 3610 ft | 233 kts | 125° |
| 2026-05-06 17:41 | 53.46521 | 9.59142 | 3254 ft | 223 kts | 93° |
| 2026-05-06 17:41 | 53.46538 | 9.61700 | 3047 ft | 216 kts | 85° |
| 2026-05-06 17:41 | 53.46653 | 9.64217 | 3022 ft | 216 kts | 79° |
| 2026-05-06 17:42 | 53.47243 | 9.66467 | 3019 ft | 213 kts | 56° |
| 2026-05-06 17:42 | 53.48095 | 9.68529 | 3014 ft | 214 kts | 54° |
| 2026-05-06 17:42 | 53.48988 | 9.70469 | 2996 ft | 204 kts | 52° |
| 2026-05-06 17:42 | 53.49867 | 9.72265 | 2983 ft | 195 kts | 51° |
| 2026-05-06 17:43 | 53.50726 | 9.73996 | 3001 ft | 192 kts | 50° |
| 2026-05-06 17:43 | 53.51596 | 9.75718 | 3000 ft | 195 kts | 49° |
| 2026-05-06 17:43 | 53.52494 | 9.77432 | 2954 ft | 193 kts | 50° |
| 2026-05-06 17:43 | 53.53326 | 9.79087 | 2758 ft | 177 kts | 51° |
| 2026-05-06 17:44 | 53.54083 | 9.80623 | 2521 ft | 165 kts | 51° |
| 2026-05-06 17:44 | 53.54786 | 9.82055 | 2325 ft | 161 kts | 51° |
| 2026-05-06 17:44 | 53.55496 | 9.83501 | 2100 ft | 156 kts | 51° |
| 2026-05-06 17:44 | 53.56168 | 9.84868 | 1885 ft | 148 kts | 51° |
| 2026-05-06 17:45 | 53.56812 | 9.86179 | 1715 ft | 146 kts | 51° |
| 2026-05-06 17:45 | 53.57456 | 9.87490 | 1499 ft | 144 kts | 51° |
| 2026-05-06 17:45 | 53.58092 | 9.88785 | 1302 ft | 143 kts | 51° |
| 2026-05-06 17:45 | 53.58732 | 9.90085 | 1102 ft | 144 kts | 51° |
| 2026-05-06 17:46 | 53.59370 | 9.91382 | 891 ft | 143 kts | 51° |
| 2026-05-06 17:46 | 53.60015 | 9.92690 | 697 ft | 146 kts | 50° |
| 2026-05-06 17:46 | 53.60659 | 9.94002 | 479 ft | 144 kts | 50° |
| 2026-05-06 17:46 | 53.61297 | 9.95297 | 299 ft | 145 kts | 50° |
| 2026-05-06 17:47 | 53.61937 | 9.96595 | 107 ft | 142 kts | 51° |
| 2026-05-06 17:47 | 53.62528 | 9.97789 | 43 ft | 102 kts | 50° |
| 2026-05-06 17:47 | 53.62720 | 9.98176 | 47 ft | 32 kts | 50° |
| 2026-05-06 17:47 | 53.62733 | 9.98366 | 46 ft | 2 kts | 130° |
| 2026-05-06 17:48 | 53.62718 | 9.98396 | 46 ft | 4 kts | 131° |
| 2026-05-06 17:48 | 53.62696 | 9.98432 | 45 ft | 5 kts | 136° |
| 2026-05-06 17:48 | 53.62602 | 9.98544 | 45 ft | 22 kts | 151° |
| 2026-05-06 17:48 | 53.62576 | 9.98568 | 45 ft | 0 kts | 151° |
| 2026-05-06 17:49 | 53.62562 | 9.98582 | 45 ft | 0 kts | 151° |
| 2026-05-06 17:49 | 53.62560 | 9.98584 | 45 ft | 0 kts | 151° |
| 2026-05-06 17:49 | 53.62559 | 9.98585 | 45 ft | 0 kts | 151° |
| 2026-05-06 17:50 | 53.62543 | 9.98601 | 45 ft | 7 kts | 144° |
| 2026-05-06 17:50 | 53.62526 | 9.98680 | 45 ft | 7 kts | 96° |
| 2026-05-06 17:51 | 53.62529 | 9.98792 | 45 ft | 11 kts | 81° |
| 2026-05-06 17:51 | 53.62543 | 9.98921 | 45 ft | 11 kts | 80° |
| 2026-05-06 17:51 | 53.62559 | 9.99046 | 45 ft | 11 kts | 78° |
| 2026-05-06 17:51 | 53.62574 | 9.99171 | 44 ft | 14 kts | 79° |
| 2026-05-06 17:52 | 53.62595 | 9.99361 | 42 ft | 19 kts | 79° |
| 2026-05-06 17:52 | 53.62611 | 9.99510 | 42 ft | 8 kts | 79° |
| 2026-05-06 17:52 | 53.62620 | 9.99596 | 43 ft | 7 kts | 79° |
| 2026-05-06 17:52 | 53.62629 | 9.99673 | 43 ft | 6 kts | 79° |
| 2026-05-06 17:53 | 53.62648 | 9.99783 | 43 ft | 11 kts | 59° |
| 2026-05-06 17:53 | 53.62699 | 9.99860 | 45 ft | 12 kts | 36° |
| 2026-05-06 17:53 | 53.62767 | 9.99926 | 42 ft | 11 kts | 28° |
| 2026-05-06 17:53 | 53.62831 | 9.99987 | 42 ft | 10 kts | 35° |
| 2026-05-06 17:54 | 53.62880 | 10.00053 | 44 ft | 8 kts | 42° |
| 2026-05-06 17:54 | 53.62916 | 10.00098 | 44 ft | 6 kts | 35° |
| 2026-05-06 17:54 | 53.62931 | 10.00114 | 43 ft | 0 kts | 34° |
| 2026-05-06 17:54 | 53.62940 | 10.00124 | 45 ft | 1 kts | 34° |
| 2026-05-06 17:55 | 53.63035 | 10.00220 | 45 ft | 18 kts | 32° |
| 2026-05-06 17:55 | 53.63085 | 10.00256 | 46 ft | 0 kts | 9° |
| 2026-05-06 17:55 | 53.63109 | 10.00302 | 47 ft | 0 kts | 96° |
| 2026-05-06 17:55 | 53.63105 | 10.00304 | 47 ft | 1 kts | 147° |
| 2026-05-06 17:56 | 53.63099 | 10.00310 | 47 ft | 1 kts | 140° |
| 2026-05-06 17:56 | 53.63079 | 10.00364 | 47 ft | 0 kts | 79° |